createdAt,value
2018-05-23T00:01:04.023Z,11.60
2018-05-23T00:03:31.522Z,11.60
2018-05-23T00:05:59.778Z,11.60
2018-05-23T00:08:27.295Z,11.50
2018-05-23T00:10:54.798Z,11.50
2018-05-23T00:13:22.294Z,11.50
2018-05-23T00:15:49.854Z,11.50
2018-05-23T00:18:17.354Z,11.50
2018-05-23T00:20:44.856Z,11.50
2018-05-23T00:23:12.382Z,11.50
2018-05-23T00:25:39.886Z,11.50
2018-05-23T00:28:08.142Z,11.60
2018-05-23T00:30:35.663Z,11.50
2018-05-23T00:33:03.162Z,11.60
2018-05-23T00:35:30.670Z,11.50
2018-05-23T00:37:58.227Z,11.50
2018-05-23T00:40:25.726Z,11.40
2018-05-23T00:42:54.230Z,11.30
2018-05-23T00:45:22.539Z,11.30
2018-05-23T00:47:50.059Z,11.30
2018-05-23T00:50:17.581Z,11.30
2018-05-23T00:52:45.095Z,11.30
2018-05-23T00:55:24.264Z,11.20
2018-05-23T00:57:51.834Z,11.20
2018-05-23T01:00:19.329Z,11.10
2018-05-23T01:02:46.823Z,11.10
2018-05-23T01:05:15.125Z,10.90
2018-05-23T01:07:42.618Z,10.90
2018-05-23T01:10:10.112Z,10.90
2018-05-23T01:12:38.523Z,10.90
2018-05-23T01:15:06.026Z,10.80
2018-05-23T01:17:33.554Z,10.90
2018-05-23T01:20:01.119Z,10.80
2018-05-23T01:22:29.374Z,10.80
2018-05-23T01:24:56.874Z,10.80
2018-05-23T01:27:24.402Z,10.80
2018-05-23T01:29:51.899Z,10.80
2018-05-23T01:32:19.404Z,10.80
2018-05-23T01:34:47.711Z,10.80
2018-05-23T01:37:15.206Z,10.80
2018-05-23T01:39:42.698Z,10.90
2018-05-23T01:42:11.003Z,10.90
2018-05-23T01:44:38.499Z,10.80
2018-05-23T01:47:06.000Z,10.90
2018-05-23T01:49:34.283Z,10.80
2018-05-23T01:52:01.779Z,10.80
2018-05-23T01:54:29.271Z,10.80
2018-05-23T01:56:56.791Z,10.70
2018-05-23T01:59:24.282Z,10.60
2018-05-23T02:01:51.774Z,10.60
2018-05-23T02:04:19.321Z,10.60
2018-05-23T02:06:46.818Z,10.60
2018-05-23T02:09:14.314Z,10.70
2018-05-23T02:11:41.859Z,10.70
2018-05-23T02:14:09.351Z,10.70
2018-05-23T02:16:36.838Z,10.70
2018-05-23T02:19:04.410Z,10.70
2018-05-23T02:21:31.902Z,10.70
2018-05-23T02:23:59.394Z,10.60
2018-05-23T02:26:27.302Z,10.60
2018-05-23T02:28:54.791Z,10.50
2018-05-23T02:31:22.282Z,10.40
2018-05-23T02:33:49.820Z,10.40
2018-05-23T02:36:17.316Z,10.30
2018-05-23T02:38:44.827Z,10.30
2018-05-23T02:41:12.374Z,10.30
2018-05-23T02:43:39.872Z,10.20
2018-05-23T02:46:07.370Z,10.20
2018-05-23T02:48:35.651Z,10.20
2018-05-23T02:51:03.148Z,10.10
2018-05-23T02:53:30.642Z,10.20
2018-05-23T02:55:58.257Z,10.20
2018-05-23T02:58:25.747Z,10.20
2018-05-23T03:00:53.243Z,10.20
2018-05-23T03:03:20.822Z,10.30
2018-05-23T03:05:48.315Z,10.30
2018-05-23T03:08:15.806Z,10.30
2018-05-23T03:10:43.377Z,10.30
2018-05-23T03:13:10.874Z,10.20
2018-05-23T03:15:38.367Z,10.10
2018-05-23T03:18:05.909Z,10.10
2018-05-23T03:20:33.402Z,10.10
2018-05-23T03:23:00.895Z,10.10
2018-05-23T03:25:29.230Z,10.10
2018-05-23T03:27:56.732Z,10.10
2018-05-23T03:30:25.000Z,10.20
2018-05-23T03:32:52.546Z,10.10
2018-05-23T03:35:20.042Z,10.20
2018-05-23T03:37:48.310Z,10.30
2018-05-23T03:40:15.830Z,10.30
2018-05-23T03:42:43.338Z,10.30
2018-05-23T03:45:11.600Z,10.40
2018-05-23T03:47:39.208Z,10.40
2018-05-23T03:50:06.711Z,10.50
2018-05-23T03:52:34.234Z,10.50
2018-05-23T03:55:01.796Z,10.60
2018-05-23T03:57:29.286Z,10.60
2018-05-23T04:00:08.480Z,10.70
2018-05-23T04:02:47.754Z,10.70
2018-05-23T04:05:27.183Z,10.80
2018-05-23T04:07:54.683Z,10.80
2018-05-23T04:10:22.187Z,10.80
2018-05-23T04:12:49.846Z,10.90
2018-05-23T04:15:17.344Z,10.90
2018-05-23T04:17:44.838Z,11.00
2018-05-23T04:20:12.370Z,11.00
2018-05-23T04:22:39.944Z,11.10
2018-05-23T04:25:07.439Z,11.10
2018-05-23T04:27:34.986Z,11.20
2018-05-23T04:30:02.482Z,11.30
2018-05-23T04:32:29.984Z,11.40
2018-05-23T04:34:57.543Z,11.50
2018-05-23T04:37:25.037Z,11.60
2018-05-23T04:39:52.534Z,11.70
2018-05-23T04:42:20.062Z,11.90
2018-05-23T04:44:47.571Z,12.00
2018-05-23T04:47:15.066Z,12.10
2018-05-23T04:49:43.376Z,12.30
2018-05-23T04:52:10.882Z,12.30
2018-05-23T04:54:38.385Z,12.40
2018-05-23T04:57:05.933Z,12.50
2018-05-23T04:59:33.422Z,12.50
2018-05-23T05:02:00.915Z,12.60
2018-05-23T05:04:28.487Z,12.80
2018-05-23T05:06:55.983Z,12.90
2018-05-23T05:09:24.244Z,13.20
2018-05-23T05:11:51.810Z,13.20
2018-05-23T05:14:20.072Z,13.50
2018-05-23T05:16:47.121Z,13.40
2018-05-23T05:19:14.201Z,13.60
2018-05-23T05:21:42.009Z,13.80
2018-05-23T05:24:09.056Z,13.80
2018-05-23T05:26:36.187Z,13.90
2018-05-23T05:29:03.232Z,14.00
2018-05-23T05:31:30.271Z,14.00
2018-05-23T05:33:57.510Z,14.10
2018-05-23T05:36:25.039Z,14.20
2018-05-23T05:38:52.105Z,14.30
2018-05-23T05:41:19.262Z,14.30
2018-05-23T05:50:29.043Z,14.50
2018-05-23T05:52:56.110Z,14.70
2018-05-23T05:55:23.146Z,14.80
2018-05-23T05:57:50.218Z,14.90
2018-05-23T06:00:18.022Z,15.00
2018-05-23T06:02:45.090Z,15.00
2018-05-23T06:05:12.209Z,15.10
2018-05-23T06:07:39.287Z,15.20
2018-05-23T06:10:06.327Z,15.20
2018-05-23T06:12:33.414Z,15.40
2018-05-23T06:15:00.458Z,15.40
2018-05-23T06:17:27.505Z,15.60
2018-05-23T06:19:54.574Z,15.70
2018-05-23T06:22:21.694Z,15.80
2018-05-23T06:24:48.693Z,15.90
2018-05-23T06:27:15.810Z,16.00
2018-05-23T06:29:42.853Z,16.10
2018-05-23T06:32:09.899Z,16.30
2018-05-23T06:34:36.994Z,16.40
2018-05-23T06:37:04.042Z,16.60
2018-05-23T06:39:31.873Z,16.90
2018-05-23T06:41:58.953Z,16.90
2018-05-23T06:44:26.761Z,17.20
2018-05-23T06:46:53.829Z,17.20
2018-05-23T06:49:20.949Z,17.40
2018-05-23T06:51:48.007Z,17.60
2018-05-23T06:54:15.055Z,17.70
2018-05-23T06:56:42.142Z,17.80
2018-05-23T06:59:09.199Z,17.90
2018-05-23T07:01:36.258Z,18.00
2018-05-23T07:04:03.379Z,18.10
2018-05-23T07:06:30.430Z,18.20
2018-05-23T07:08:57.482Z,18.30
2018-05-23T07:11:24.605Z,18.50
2018-05-23T07:13:51.648Z,18.60
2018-05-23T07:16:18.692Z,18.80
2018-05-23T07:18:45.763Z,18.90
2018-05-23T07:21:12.803Z,19.00
2018-05-23T07:23:39.910Z,19.10
2018-05-23T07:26:06.997Z,19.30
2018-05-23T07:28:34.037Z,19.40
2018-05-23T07:31:01.086Z,19.50
2018-05-23T07:33:28.945Z,19.80
2018-05-23T07:35:55.986Z,19.80
2018-05-23T07:38:23.129Z,20.00
2018-05-23T07:40:50.138Z,20.10
2018-05-23T07:43:17.186Z,20.20
2018-05-23T07:45:44.232Z,20.30
2018-05-23T07:48:11.358Z,20.50
2018-05-23T07:50:38.401Z,20.50
2018-05-23T07:53:05.446Z,20.70
2018-05-23T07:55:33.304Z,20.90
2018-05-23T07:58:00.350Z,20.90
2018-05-23T08:00:27.450Z,21.00
2018-05-23T08:02:54.542Z,21.20
2018-05-23T08:05:21.582Z,21.30
2018-05-23T08:07:48.636Z,21.40
2018-05-23T08:10:15.757Z,21.50
2018-05-23T08:12:42.801Z,21.60
2018-05-23T08:15:09.842Z,21.70
2018-05-23T08:17:36.927Z,21.80
2018-05-23T08:20:03.973Z,22.00
2018-05-23T08:22:31.110Z,22.00
2018-05-23T08:24:58.198Z,22.20
2018-05-23T08:27:25.245Z,22.30
2018-05-23T08:29:52.349Z,22.40
2018-05-23T08:32:19.395Z,22.40
2018-05-23T08:34:46.444Z,22.60
2018-05-23T08:37:13.495Z,22.70
2018-05-23T08:39:40.915Z,22.80
2018-05-23T08:42:07.978Z,22.90
2018-05-23T08:44:35.792Z,23.10
2018-05-23T08:47:02.906Z,23.10
2018-05-23T08:49:29.952Z,23.20
2018-05-23T08:51:57.766Z,23.40
2018-05-23T08:54:24.864Z,23.40
2018-05-23T08:56:52.678Z,23.60
2018-05-23T08:59:19.721Z,23.50
2018-05-23T09:08:29.804Z,23.60
2018-05-23T09:10:56.850Z,23.90
2018-05-23T09:13:23.893Z,24.00
2018-05-23T09:15:50.978Z,24.00
2018-05-23T09:18:18.026Z,24.10
2018-05-23T09:20:45.070Z,24.10
2018-05-23T09:23:12.173Z,24.20
2018-05-23T09:25:40.023Z,24.30
2018-05-23T09:28:07.066Z,24.30
2018-05-23T09:30:34.930Z,24.40
2018-05-23T09:33:01.986Z,24.30
2018-05-23T09:35:29.030Z,24.50
2018-05-23T09:37:56.102Z,24.60
2018-05-23T09:40:23.142Z,24.70
2018-05-23T09:42:50.181Z,24.70
2018-05-23T09:45:17.295Z,24.80
2018-05-23T09:47:44.339Z,25.00
2018-05-23T09:50:11.383Z,25.00
2018-05-23T09:52:38.492Z,25.00
2018-05-23T09:55:05.664Z,25.00
2018-05-23T09:57:32.654Z,25.20
2018-05-23T09:59:59.738Z,25.20
2018-05-23T10:02:26.793Z,25.30
2018-05-23T10:04:53.943Z,25.30
2018-05-23T10:07:21.047Z,25.40
2018-05-23T10:09:48.091Z,25.40
2018-05-23T10:12:15.148Z,25.50
2018-05-23T10:14:42.226Z,25.60
2018-05-23T10:17:09.266Z,25.70
2018-05-23T10:19:36.310Z,25.80
2018-05-23T10:22:03.378Z,26.00
2018-05-23T10:24:30.462Z,26.10
2018-05-23T10:26:57.543Z,26.40
2018-05-23T10:29:25.147Z,26.50
2018-05-23T10:31:53.334Z,26.60
2018-05-23T10:34:20.379Z,26.80
2018-05-23T10:36:47.915Z,27.10
2018-05-23T10:39:15.411Z,27.20
2018-05-23T10:41:43.032Z,27.40
2018-05-23T10:44:10.617Z,27.60
2018-05-23T10:46:38.120Z,27.70
2018-05-23T10:49:05.630Z,27.70
2018-05-23T10:51:33.216Z,27.80
2018-05-23T10:54:00.698Z,27.80
2018-05-23T10:56:28.346Z,27.80
2018-05-23T10:58:55.906Z,27.70
2018-05-23T11:01:23.509Z,27.60
2018-05-23T11:03:51.458Z,27.50
2018-05-23T11:06:18.975Z,27.40
2018-05-23T11:08:46.484Z,27.40
2018-05-23T11:11:13.977Z,27.50
2018-05-23T11:13:41.864Z,27.50
2018-05-23T11:16:09.345Z,27.40
2018-05-23T11:18:36.840Z,27.50
2018-05-23T11:21:04.354Z,27.60
2018-05-23T11:23:31.843Z,27.70
2018-05-23T11:25:59.336Z,27.80
2018-05-23T11:28:26.894Z,27.90
2018-05-23T11:30:54.390Z,27.90
2018-05-23T11:33:21.883Z,27.80
2018-05-23T11:35:49.411Z,27.70
2018-05-23T11:38:16.898Z,27.60
2018-05-23T11:40:44.399Z,27.50
2018-05-23T11:43:11.937Z,27.30
2018-05-23T11:45:39.430Z,27.10
2018-05-23T11:48:06.914Z,26.90
2018-05-23T11:50:34.431Z,26.80
2018-05-23T11:53:01.930Z,26.80
2018-05-23T11:55:29.423Z,27.10
2018-05-23T11:57:56.946Z,27.20
2018-05-23T12:00:24.435Z,27.40
2018-05-23T12:02:51.926Z,27.50
2018-05-23T12:05:19.482Z,27.70
2018-05-23T12:07:47.114Z,27.90
2018-05-23T12:10:14.692Z,28.00
2018-05-23T12:12:42.160Z,28.20
2018-05-23T12:15:09.662Z,28.50
2018-05-23T12:17:37.155Z,28.80
2018-05-23T12:20:04.686Z,29.10
2018-05-23T12:22:32.175Z,29.40
2018-05-23T12:24:59.676Z,29.70
2018-05-23T12:27:27.234Z,30.00
2018-05-23T12:29:54.722Z,30.00
2018-05-23T12:32:22.218Z,29.90
2018-05-23T12:34:49.738Z,29.60
2018-05-23T12:37:17.226Z,29.30
2018-05-23T12:39:44.718Z,29.10
2018-05-23T12:42:13.025Z,28.60
2018-05-23T12:44:40.526Z,28.60
2018-05-23T12:47:08.014Z,28.50
2018-05-23T12:49:36.353Z,28.80
2018-05-23T12:52:03.850Z,28.80
2018-05-23T12:54:32.113Z,29.00
2018-05-23T12:56:59.658Z,29.00
2018-05-23T12:59:27.231Z,29.20
2018-05-23T13:01:54.756Z,29.30
2018-05-23T13:04:22.279Z,29.40
2018-05-23T13:06:49.780Z,29.60
2018-05-23T13:09:17.271Z,29.70
2018-05-23T13:11:44.806Z,30.00
2018-05-23T13:14:12.294Z,30.20
2018-05-23T13:16:39.814Z,30.30
2018-05-23T13:19:07.390Z,30.00
2018-05-23T13:21:34.884Z,29.50
2018-05-23T13:24:02.387Z,28.90
2018-05-23T13:26:29.974Z,28.30
2018-05-23T13:28:57.463Z,27.70
2018-05-23T13:31:24.958Z,27.30
2018-05-23T13:33:52.508Z,27.00
2018-05-23T13:36:20.763Z,27.50
2018-05-23T13:38:48.261Z,27.50
2018-05-23T13:41:15.854Z,28.10
2018-05-23T13:43:43.343Z,28.60
2018-05-23T13:46:10.832Z,29.00
2018-05-23T13:48:38.363Z,29.40
2018-05-23T13:51:05.851Z,29.70
2018-05-23T13:53:33.341Z,30.00
2018-05-23T13:56:00.878Z,30.30
2018-05-23T13:58:30.066Z,30.70
2018-05-23T14:00:57.553Z,30.60
2018-05-23T14:03:25.068Z,30.80
2018-05-23T14:05:52.561Z,30.80
2018-05-23T14:08:20.810Z,29.80
2018-05-23T14:10:48.376Z,29.80
2018-05-23T14:13:15.865Z,29.00
2018-05-23T14:15:44.118Z,27.60
2018-05-23T14:18:11.658Z,27.60
2018-05-23T14:20:39.147Z,27.00
2018-05-23T14:23:07.403Z,26.60
2018-05-23T14:32:18.076Z,26.60
2018-05-23T14:34:45.566Z,27.00
2018-05-23T14:37:13.060Z,27.10
2018-05-23T14:39:40.607Z,27.10
2018-05-23T14:42:08.094Z,26.90
2018-05-23T14:44:35.579Z,26.70
2018-05-23T14:47:03.114Z,26.60
2018-05-23T14:49:31.377Z,26.30
2018-05-23T14:51:58.870Z,26.30
2018-05-23T14:54:26.427Z,26.20
2018-05-23T14:56:53.934Z,26.10
2018-05-23T14:59:21.483Z,26.00
2018-05-23T15:01:49.100Z,25.80
2018-05-23T15:04:17.432Z,25.40
2018-05-23T15:06:44.935Z,25.30
2018-05-23T15:09:13.225Z,25.40
2018-05-23T15:11:40.722Z,25.30
2018-05-23T15:14:08.210Z,25.50
2018-05-23T15:16:35.803Z,25.80
2018-05-23T15:19:03.290Z,26.10
2018-05-23T15:21:30.796Z,26.30
2018-05-23T15:23:58.342Z,26.30
2018-05-23T15:26:25.830Z,26.30
2018-05-23T15:28:54.090Z,26.10
2018-05-23T15:31:21.652Z,26.10
2018-05-23T15:33:49.118Z,26.00
2018-05-23T15:36:16.606Z,25.90
2018-05-23T15:38:44.935Z,26.40
2018-05-23T15:41:12.423Z,26.40
2018-05-23T15:43:39.909Z,27.30
2018-05-23T15:46:07.441Z,28.20
2018-05-23T15:48:34.932Z,29.10
2018-05-23T15:51:02.436Z,29.80
2018-05-23T15:53:29.974Z,29.80
2018-05-23T15:55:57.466Z,29.30
2018-05-23T15:58:25.490Z,28.70
2018-05-23T16:00:53.047Z,28.10
2018-05-23T16:03:21.294Z,27.70
2018-05-23T16:05:48.782Z,27.70
2018-05-23T16:08:16.344Z,27.70
2018-05-23T16:10:44.643Z,27.40
2018-05-23T16:13:12.130Z,26.90
2018-05-23T16:15:39.676Z,26.50
2018-05-23T16:18:07.158Z,26.60
2018-05-23T16:20:34.723Z,27.30
2018-05-23T16:23:02.287Z,28.10
2018-05-23T16:25:29.775Z,28.90
2018-05-23T16:27:58.034Z,30.00
2018-05-23T16:30:25.591Z,30.00
2018-05-23T16:32:53.079Z,29.50
2018-05-23T16:35:21.360Z,27.80
2018-05-23T16:37:48.894Z,27.70
2018-05-23T16:40:16.382Z,27.10
2018-05-23T16:42:44.635Z,26.60
2018-05-23T16:45:12.143Z,26.60
2018-05-23T16:47:39.640Z,27.50
2018-05-23T16:50:07.126Z,28.70
2018-05-23T16:52:35.454Z,30.80
2018-05-23T16:55:02.940Z,30.80
2018-05-23T16:57:30.431Z,31.60
2018-05-23T16:59:58.786Z,32.20
2018-05-23T17:02:26.290Z,32.20
2018-05-23T17:04:53.803Z,32.30
2018-05-23T17:07:21.332Z,32.30
2018-05-23T17:09:48.833Z,32.40
2018-05-23T17:12:16.329Z,32.50
2018-05-23T17:14:43.841Z,32.70
2018-05-23T17:17:11.329Z,32.70
2018-05-23T17:19:39.583Z,32.30
2018-05-23T17:22:07.147Z,32.30
2018-05-23T17:24:34.647Z,31.80
2018-05-23T17:27:02.894Z,30.00
2018-05-23T17:29:30.430Z,29.90
2018-05-23T17:31:57.927Z,29.00
2018-05-23T17:34:26.180Z,27.60
2018-05-23T17:36:53.698Z,27.50
2018-05-23T17:39:21.195Z,26.90
2018-05-23T17:41:48.696Z,26.30
2018-05-23T17:44:17.014Z,25.60
2018-05-23T17:46:45.485Z,25.50
2018-05-23T17:49:12.975Z,25.20
2018-05-23T17:51:40.527Z,24.90
2018-05-23T17:54:08.019Z,24.70
2018-05-23T17:56:35.510Z,24.40
2018-05-23T17:59:03.026Z,24.10
2018-05-23T18:01:30.517Z,23.90
2018-05-23T18:03:58.778Z,23.60
2018-05-23T18:06:26.334Z,23.50
2018-05-23T18:08:53.814Z,23.40
2018-05-23T18:11:22.072Z,23.10
2018-05-23T18:13:49.612Z,23.10
2018-05-23T18:16:17.095Z,22.90
2018-05-23T18:18:44.588Z,22.80
2018-05-23T18:21:12.102Z,22.70
2018-05-23T18:30:23.110Z,22.40
2018-05-23T18:32:50.605Z,22.10
2018-05-23T18:35:18.321Z,21.90
2018-05-23T18:37:45.892Z,21.80
2018-05-23T18:40:13.399Z,21.70
2018-05-23T18:42:40.914Z,21.60
2018-05-23T18:45:08.422Z,21.40
2018-05-23T18:47:35.910Z,21.30
2018-05-23T18:50:03.398Z,21.20
2018-05-23T18:52:30.979Z,21.00
2018-05-23T18:54:58.482Z,20.90
2018-05-23T18:57:26.874Z,20.80
2018-05-23T18:59:54.444Z,20.60
2018-05-23T19:02:21.938Z,20.50
2018-05-23T19:04:49.469Z,20.40
2018-05-23T19:07:16.997Z,20.30
2018-05-23T19:09:45.454Z,20.10
2018-05-23T19:12:19.061Z,20.10
2018-05-23T19:14:50.340Z,19.90
2018-05-23T19:17:21.000Z,19.80
2018-05-23T19:19:52.998Z,19.70
2018-05-23T19:22:23.713Z,19.50
2018-05-23T19:24:54.419Z,19.50
2018-05-23T19:27:23.783Z,19.40
2018-05-23T19:29:53.167Z,19.30
2018-05-23T19:32:24.218Z,19.20
2018-05-23T19:34:56.700Z,19.10
2018-05-23T19:37:27.531Z,19.00
2018-05-23T19:39:55.145Z,18.90
2018-05-23T19:42:22.725Z,18.80
2018-05-23T19:44:50.246Z,18.70
2018-05-23T19:47:17.797Z,18.70
2018-05-23T19:49:45.291Z,18.60
2018-05-23T19:52:12.980Z,18.50
2018-05-23T19:54:40.473Z,18.40
2018-05-23T19:57:08.021Z,18.40
2018-05-23T19:59:35.518Z,18.30
2018-05-23T20:02:03.120Z,18.20
2018-05-23T20:04:30.602Z,18.10
2018-05-23T20:06:58.102Z,18.00
2018-05-23T20:09:25.622Z,18.00
2018-05-23T20:11:53.199Z,17.90
2018-05-23T20:14:20.732Z,17.90
2018-05-23T20:16:48.997Z,17.80
2018-05-23T20:19:16.522Z,17.70
2018-05-23T20:21:44.019Z,17.70
2018-05-23T20:24:11.515Z,17.60
2018-05-23T20:26:39.091Z,17.50
2018-05-23T20:29:06.590Z,17.40
2018-05-23T20:31:34.099Z,17.40
2018-05-23T20:34:01.635Z,17.30
2018-05-23T20:36:29.129Z,17.20
2018-05-23T20:38:56.627Z,17.20
2018-05-23T20:41:24.174Z,17.10
2018-05-23T20:43:51.658Z,17.10
2018-05-23T20:46:19.150Z,17.00
2018-05-23T20:48:46.689Z,17.00
2018-05-23T20:51:14.199Z,16.90
2018-05-23T20:53:41.686Z,16.90
2018-05-23T20:56:09.247Z,16.80
2018-05-23T20:58:36.818Z,16.80
2018-05-23T21:01:04.234Z,16.70
2018-05-23T21:03:31.769Z,16.60
2018-05-23T21:05:59.257Z,16.60
2018-05-23T21:08:26.747Z,16.50
2018-05-23T21:10:55.031Z,16.40
2018-05-23T21:13:23.339Z,16.30
2018-05-23T21:15:50.886Z,16.30
2018-05-23T21:18:18.563Z,16.20
2018-05-23T21:20:46.106Z,16.10
2018-05-23T21:23:13.672Z,15.90
2018-05-23T21:25:41.282Z,15.80
2018-05-23T21:28:08.854Z,15.70
2018-05-23T21:30:36.403Z,15.50
2018-05-23T21:33:04.057Z,15.40
2018-05-23T21:35:31.618Z,15.30
2018-05-23T21:37:59.124Z,15.30
2018-05-23T21:40:26.651Z,15.20
2018-05-23T21:42:54.156Z,15.10
2018-05-23T21:45:22.418Z,14.90
2018-05-23T21:47:50.055Z,14.90
2018-05-23T21:50:17.574Z,14.80
2018-05-23T21:52:45.059Z,14.70
2018-05-23T21:55:12.630Z,14.60
2018-05-23T21:57:40.919Z,14.50
2018-05-23T22:00:08.443Z,14.50
2018-05-23T22:02:35.979Z,14.50
2018-05-23T22:05:04.282Z,14.30
2018-05-23T22:07:31.767Z,14.30
2018-05-23T22:09:59.282Z,14.20
2018-05-23T22:12:26.780Z,14.20
2018-05-23T22:14:54.267Z,14.10
2018-05-23T22:17:21.829Z,14.10
2018-05-23T22:19:49.315Z,14.00
2018-05-23T22:22:16.806Z,14.00
2018-05-23T22:24:44.367Z,13.90
2018-05-23T22:27:11.854Z,13.80
2018-05-23T22:29:39.339Z,13.80
2018-05-23T22:32:06.874Z,13.70
2018-05-23T22:34:35.126Z,13.60
2018-05-23T22:37:02.620Z,13.50
2018-05-23T22:39:30.166Z,13.50
2018-05-23T22:41:57.651Z,13.40
2018-05-23T22:44:25.142Z,13.40
2018-05-23T22:46:52.706Z,13.30
2018-05-23T22:49:20.975Z,13.40
2018-05-23T22:51:48.471Z,13.30
2018-05-23T22:54:15.989Z,13.40
2018-05-23T22:56:44.259Z,13.40
2018-05-23T22:59:11.753Z,13.40
2018-05-23T23:01:39.361Z,13.40
2018-05-23T23:04:07.546Z,13.40
2018-05-23T23:06:35.034Z,13.40
2018-05-23T23:09:02.594Z,13.40
2018-05-23T23:11:30.843Z,13.40
2018-05-23T23:13:58.331Z,13.40
2018-05-23T23:16:25.857Z,13.50
2018-05-23T23:18:53.430Z,13.40
2018-05-23T23:21:20.858Z,13.40
2018-05-23T23:23:48.373Z,13.50
2018-05-23T23:26:15.855Z,13.40
2018-05-23T23:28:43.334Z,13.40
2018-05-23T23:31:10.891Z,13.40
2018-05-23T23:33:38.382Z,13.40
2018-05-23T23:36:05.873Z,13.40
2018-05-23T23:38:34.169Z,13.30
2018-05-23T23:41:01.746Z,13.40
2018-05-23T23:43:29.235Z,13.30
2018-05-23T23:45:56.794Z,13.30
2018-05-23T23:48:24.294Z,13.30
2018-05-23T23:50:51.783Z,13.30
2018-05-23T23:53:19.303Z,13.30
2018-05-23T23:55:46.790Z,13.30
2018-05-23T23:58:14.283Z,13.30
